Time;durP1;ratioP1;P1;durP2;ratioP2;P2;SDS_P1;SDS_P2;PMS_P1;PMS_P2;Temp;Humidity;BMP_temperature;BMP_pressure;BME280_temperature;BME280_humidity;BME280_pressure;Samples;Min_cycle;Max_cycle;Signal;HPM_P1;HPM_P2
2022/05/14 00:00:59;;;;;;;6.03;3.17;;;;;;;;;;5054384;28;20104;-42
2022/05/14 00:03:26;;;;;;;6.30;2.97;;;;;;;;;;5054363;28;20039;-42
2022/05/14 00:05:55;;;;;;;5.88;2.13;;;;;;;;;;5054510;28;20025;-42
2022/05/14 00:08:22;;;;;;;3.08;2.20;;;;;;;;;;5054898;28;20041;-42
2022/05/14 00:13:33;;;;;;;6.00;2.40;;;;;;;;;;5054621;28;20106;-43
2022/05/14 00:16:00;;;;;;;3.63;2.17;;;;;;;;;;5053905;28;20448;-42
2022/05/14 00:18:26;;;;;;;2.80;2.03;;;;;;;;;;5054194;28;20029;-43
2022/05/14 00:20:52;;;;;;;7.22;2.17;;;;;;;;;;5036105;28;20037;-42
2022/05/14 00:23:18;;;;;;;6.13;2.42;;;;;;;;;;5054327;28;20029;-43
2022/05/14 00:25:44;;;;;;;2.40;2.20;;;;;;;;;;5054221;28;20029;-43
2022/05/14 00:28:11;;;;;;;5.07;2.50;;;;;;;;;;5053923;28;20068;-43
2022/05/14 00:30:40;;;;;;;8.23;3.92;;;;;;;;;;5054101;28;20401;-44
2022/05/14 00:33:06;;;;;;;10.57;7.20;;;;;;;;;;5036011;28;20036;-43
2022/05/14 00:35:33;;;;;;;8.38;4.68;;;;;;;;;;5053699;28;20036;-42
2022/05/14 00:37:59;;;;;;;4.72;3.55;;;;;;;;;;5053953;28;20056;-43
2022/05/14 00:40:27;;;;;;;3.97;3.03;;;;;;;;;;5053987;28;20086;-43
2022/05/14 00:42:54;;;;;;;8.48;4.82;;;;;;;;;;5053926;28;20071;-42
2022/05/14 00:45:21;;;;;;;8.27;5.28;;;;;;;;;;5052936;28;20060;-43
2022/05/14 00:47:49;;;;;;;9.43;5.30;;;;;;;;;;5053618;28;20025;-43
2022/05/14 00:50:26;;;;;;;9.10;4.38;;;;;;;;;;5053590;28;20032;-44
2022/05/14 00:53:04;;;;;;;10.95;5.97;;;;;;;;;;5053689;28;20053;-43
2022/05/14 00:55:30;;;;;;;6.10;4.28;;;;;;;;;;5053594;28;20041;-44
2022/05/14 00:57:56;;;;;;;10.20;4.88;;;;;;;;;;5053523;28;20025;-43
2022/05/14 01:00:24;;;;;;;6.05;4.68;;;;;;;;;;5053498;28;20032;-43
2022/05/14 01:02:50;;;;;;;5.70;3.90;;;;;;;;;;5053741;28;20017;-43
2022/05/14 01:05:18;;;;;;;5.15;3.00;;;;;;;;;;5053410;28;20381;-43
2022/05/14 01:07:45;;;;;;;7.38;2.63;;;;;;;;;;5053529;28;20024;-43
2022/05/14 01:10:12;;;;;;;7.13;2.85;;;;;;;;;;5053457;28;20045;-43
2022/05/14 01:12:41;;;;;;;14.25;2.60;;;;;;;;;;5053417;28;20020;-43
2022/05/14 01:15:14;;;;;;;3.20;2.50;;;;;;;;;;5053750;28;20495;-43
2022/05/14 01:17:40;;;;;;;6.78;3.13;;;;;;;;;;5053506;28;20112;-43
2022/05/14 01:20:07;;;;;;;10.20;2.67;;;;;;;;;;5053223;28;20124;-43
2022/05/14 01:22:42;;;;;;;4.97;2.65;;;;;;;;;;5053280;28;20370;-42
2022/05/14 01:28:04;;;;;;;5.13;2.45;;;;;;;;;;5053695;28;20047;-43
2022/05/14 01:30:30;;;;;;;7.78;2.60;;;;;;;;;;5052957;28;20028;-42
2022/05/14 01:33:06;;;;;;;5.95;2.90;;;;;;;;;;5053360;28;20362;-42
2022/05/14 01:35:36;;;;;;;4.60;2.78;;;;;;;;;;5053122;28;20037;-43
2022/05/14 01:38:03;;;;;;;8.27;3.93;;;;;;;;;;5053225;28;20028;-43
2022/05/14 01:40:30;;;;;;;10.23;5.57;;;;;;;;;;5053053;28;20026;-43
2022/05/14 01:42:56;;;;;;;14.45;6.20;;;;;;;;;;5053065;28;20060;-43
2022/05/14 01:45:23;;;;;;;27.90;11.35;;;;;;;;;;5053119;28;20424;-43
2022/05/14 01:47:51;;;;;;;35.53;14.02;;;;;;;;;;5053190;28;20032;-43
2022/05/14 01:50:18;;;;;;;50.20;17.88;;;;;;;;;;5052883;28;20047;-43
2022/05/14 01:52:44;;;;;;;51.67;19.63;;;;;;;;;;5052952;28;20034;-43
2022/05/14 01:55:10;;;;;;;57.60;21.15;;;;;;;;;;5053644;28;20071;-43
2022/05/14 01:57:36;;;;;;;54.30;21.48;;;;;;;;;;5057000;28;20029;-43
2022/05/14 02:00:07;;;;;;;58.28;22.75;;;;;;;;;;5056730;28;20029;-43
2022/05/14 02:02:33;;;;;;;50.08;18.33;;;;;;;;;;5056850;28;20029;-43
2022/05/14 02:04:59;;;;;;;54.55;17.70;;;;;;;;;;5056908;28;20021;-43
2022/05/14 02:07:26;;;;;;;50.45;18.85;;;;;;;;;;5056768;28;20025;-43
2022/05/14 02:09:54;;;;;;;36.78;13.93;;;;;;;;;;5056288;28;20102;-42
2022/05/14 02:12:20;;;;;;;29.00;12.07;;;;;;;;;;5056700;28;20025;-43
2022/05/14 02:14:47;;;;;;;21.90;9.60;;;;;;;;;;5056708;28;20033;-42
2022/05/14 02:17:13;;;;;;;18.83;7.20;;;;;;;;;;5056532;28;20036;-41
2022/05/14 02:19:39;;;;;;;16.45;7.07;;;;;;;;;;5056259;28;20025;-42
2022/05/14 02:22:05;;;;;;;12.98;6.10;;;;;;;;;;5056571;28;20036;-42
2022/05/14 02:24:32;;;;;;;12.45;6.20;;;;;;;;;;5056344;28;20028;-43
2022/05/14 02:26:58;;;;;;;10.75;5.85;;;;;;;;;;5056306;28;20029;-43
2022/05/14 02:29:24;;;;;;;13.02;5.88;;;;;;;;;;5056669;28;20129;-42
2022/05/14 02:31:53;;;;;;;11.52;5.70;;;;;;;;;;5056174;28;20074;-42
2022/05/14 02:34:19;;;;;;;9.23;5.25;;;;;;;;;;5056478;28;20025;-43
2022/05/14 02:36:45;;;;;;;13.85;4.90;;;;;;;;;;5056163;28;20039;-43
2022/05/14 02:39:11;;;;;;;13.07;6.47;;;;;;;;;;5056297;28;20096;-43
2022/05/14 02:41:38;;;;;;;12.63;6.00;;;;;;;;;;5056119;28;20469;-43
2022/05/14 02:44:04;;;;;;;11.60;6.10;;;;;;;;;;5056115;28;20029;-42
2022/05/14 02:46:30;;;;;;;16.52;7.15;;;;;;;;;;5055986;28;20025;-42
2022/05/14 02:48:56;;;;;;;11.55;6.30;;;;;;;;;;5056175;28;20104;-42
2022/05/14 02:51:22;;;;;;;14.43;6.65;;;;;;;;;;5055754;28;20025;-43
2022/05/14 02:53:48;;;;;;;12.15;6.57;;;;;;;;;;5037852;28;20033;-42
2022/05/14 02:56:14;;;;;;;13.30;5.80;;;;;;;;;;5055971;28;20041;-42
2022/05/14 03:01:27;;;;;;;19.65;6.60;;;;;;;;;;5055969;28;20114;-43
2022/05/14 03:03:53;;;;;;;13.10;7.40;;;;;;;;;;5055722;28;20214;-43
2022/05/14 03:06:19;;;;;;;14.25;7.97;;;;;;;;;;5055377;28;20474;-43
2022/05/14 03:08:45;;;;;;;20.77;8.75;;;;;;;;;;5055311;28;20032;-43
2022/05/14 03:11:14;;;;;;;13.82;7.70;;;;;;;;;;5055696;28;20049;-42
2022/05/14 03:13:40;;;;;;;12.82;7.53;;;;;;;;;;5055447;28;20051;-42
2022/05/14 03:16:06;;;;;;;16.20;9.38;;;;;;;;;;5055437;28;20025;-43
2022/05/14 03:18:33;;;;;;;18.98;10.32;;;;;;;;;;5055394;28;20021;-43
2022/05/14 03:21:00;;;;;;;17.95;10.75;;;;;;;;;;5055149;28;20489;-42
2022/05/14 03:23:26;;;;;;;15.65;10.93;;;;;;;;;;5055276;28;20030;-42
2022/05/14 03:25:52;;;;;;;20.67;9.82;;;;;;;;;;5055289;28;20472;-43
2022/05/14 03:28:18;;;;;;;18.05;8.50;;;;;;;;;;5055511;28;20032;-42
2022/05/14 03:30:44;;;;;;;20.55;7.05;;;;;;;;;;5055108;28;20025;-42
2022/05/14 03:33:10;;;;;;;10.40;5.82;;;;;;;;;;5055247;28;20066;-43
2022/05/14 03:35:36;;;;;;;11.80;8.00;;;;;;;;;;5054999;28;20389;-44
2022/05/14 03:38:03;;;;;;;52.58;32.50;;;;;;;;;;5054885;28;20029;-44
2022/05/14 03:40:29;;;;;;;19.88;10.80;;;;;;;;;;5055145;28;20029;-43
2022/05/14 03:42:55;;;;;;;14.68;8.45;;;;;;;;;;5054978;28;20063;-42
2022/05/14 03:45:21;;;;;;;25.77;12.50;;;;;;;;;;5054929;28;20017;-42
2022/05/14 03:47:47;;;;;;;25.60;15.68;;;;;;;;;;5055002;28;20071;-44
2022/05/14 03:50:13;;;;;;;27.00;9.75;;;;;;;;;;5054579;28;20036;-44
2022/05/14 03:52:39;;;;;;;15.73;8.27;;;;;;;;;;5054496;28;20033;-42
2022/05/14 03:55:06;;;;;;;18.40;10.38;;;;;;;;;;5054667;28;20030;-44
2022/05/14 03:57:32;;;;;;;15.32;8.82;;;;;;;;;;5054722;28;20389;-44
2022/05/14 03:59:58;;;;;;;13.13;5.30;;;;;;;;;;5054512;28;20023;-45
2022/05/14 04:02:24;;;;;;;9.00;5.50;;;;;;;;;;5054439;28;20040;-45
2022/05/14 04:04:51;;;;;;;12.50;6.47;;;;;;;;;;5054512;28;20028;-44
2022/05/14 04:07:17;;;;;;;22.35;7.60;;;;;;;;;;5054585;28;20113;-44
2022/05/14 04:09:43;;;;;;;25.27;6.70;;;;;;;;;;5054223;28;20045;-44
2022/05/14 04:12:09;;;;;;;10.98;5.50;;;;;;;;;;5054329;28;20083;-44
2022/05/14 04:14:35;;;;;;;14.50;4.72;;;;;;;;;;5054550;28;20021;-44
2022/05/14 04:17:01;;;;;;;22.80;5.53;;;;;;;;;;5054102;28;20477;-44
2022/05/14 04:19:28;;;;;;;15.73;4.45;;;;;;;;;;5036242;28;20037;-43
2022/05/14 04:21:56;;;;;;;15.52;4.93;;;;;;;;;;5054043;28;20034;-44
2022/05/14 04:24:22;;;;;;;8.00;4.30;;;;;;;;;;5054776;28;20028;-44
2022/05/14 04:26:48;;;;;;;7.22;4.70;;;;;;;;;;5054273;28;20107;-44
2022/05/14 04:29:14;;;;;;;9.27;4.45;;;;;;;;;;5054296;28;20032;-44
2022/05/14 04:31:40;;;;;;;7.57;4.07;;;;;;;;;;5053963;28;20037;-43
2022/05/14 04:34:07;;;;;;;8.90;4.10;;;;;;;;;;5053944;28;20477;-43
2022/05/14 04:36:33;;;;;;;6.82;3.70;;;;;;;;;;5054055;28;20124;-44
2022/05/14 04:38:59;;;;;;;8.18;3.88;;;;;;;;;;5053834;28;20025;-44
2022/05/14 04:41:30;;;;;;;4.97;3.50;;;;;;;;;;5053991;28;20550;-44
2022/05/14 04:43:56;;;;;;;5.50;3.28;;;;;;;;;;5054184;28;20029;-44
2022/05/14 04:46:22;;;;;;;6.47;3.85;;;;;;;;;;5053620;28;20025;-44
2022/05/14 04:48:48;;;;;;;9.15;3.85;;;;;;;;;;5053715;28;20108;-44
2022/05/14 04:51:14;;;;;;;5.45;3.83;;;;;;;;;;5053695;28;20044;-44
2022/05/14 04:53:40;;;;;;;9.75;4.22;;;;;;;;;;5053535;28;20033;-44
2022/05/14 04:56:07;;;;;;;7.97;5.03;;;;;;;;;;5053436;28;20381;-44
2022/05/14 04:58:33;;;;;;;4.38;3.40;;;;;;;;;;5053800;28;20055;-44
2022/05/14 05:00:59;;;;;;;5.25;3.78;;;;;;;;;;5053858;28;20025;-44
2022/05/14 05:03:28;;;;;;;7.90;4.07;;;;;;;;;;5053637;28;20033;-44
2022/05/14 05:05:55;;;;;;;5.97;3.50;;;;;;;;;;5053453;28;20017;-44
2022/05/14 05:08:25;;;;;;;7.78;3.72;;;;;;;;;;5035620;28;20021;-44
2022/05/14 05:10:52;;;;;;;6.75;3.25;;;;;;;;;;5053234;28;20051;-44
2022/05/14 05:13:21;;;;;;;7.05;3.78;;;;;;;;;;5053477;28;20017;-44
2022/05/14 05:15:47;;;;;;;7.22;3.55;;;;;;;;;;5053289;28;20112;-44
2022/05/14 05:18:13;;;;;;;5.40;3.95;;;;;;;;;;5053188;28;20028;-44
2022/05/14 05:20:41;;;;;;;3.92;3.08;;;;;;;;;;5053373;28;20040;-44
2022/05/14 05:23:11;;;;;;;4.55;3.10;;;;;;;;;;5053345;28;20031;-44
2022/05/14 05:25:37;;;;;;;6.20;4.90;;;;;;;;;;5053182;28;20021;-43
2022/05/14 05:28:03;;;;;;;5.90;4.75;;;;;;;;;;5053196;28;20022;-44
2022/05/14 05:30:29;;;;;;;7.53;4.88;;;;;;;;;;5052821;28;20124;-44
2022/05/14 05:32:55;;;;;;;4.82;3.40;;;;;;;;;;5053182;28;20017;-44
2022/05/14 05:35:21;;;;;;;9.88;3.80;;;;;;;;;;5053164;28;20037;-44
2022/05/14 05:37:48;;;;;;;4.45;3.50;;;;;;;;;;5053032;28;20025;-44
2022/05/14 05:40:15;;;;;;;4.72;3.97;;;;;;;;;;5053319;28;20021;-44
2022/05/14 05:42:41;;;;;;;3.88;3.03;;;;;;;;;;5053005;28;20021;-45
2022/05/14 05:45:07;;;;;;;6.68;3.92;;;;;;;;;;5052975;28;20036;-44
2022/05/14 05:47:33;;;;;;;5.45;3.53;;;;;;;;;;5052998;28;20447;-44
2022/05/14 05:50:02;;;;;;;4.53;3.25;;;;;;;;;;5052838;28;20493;-44
2022/05/14 05:52:28;;;;;;;4.80;3.60;;;;;;;;;;5053018;28;20029;-44
2022/05/14 05:57:40;;;;;;;5.03;3.38;;;;;;;;;;5053148;28;20492;-44
2022/05/14 06:00:08;;;;;;;7.35;4.32;;;;;;;;;;5052922;28;20029;-44
2022/05/14 06:02:34;;;;;;;5.80;3.70;;;;;;;;;;5052822;28;20512;-44
2022/05/14 06:05:04;;;;;;;6.85;3.20;;;;;;;;;;5052783;28;20389;-44
2022/05/14 06:07:32;;;;;;;4.65;2.88;;;;;;;;;;5053051;28;20025;-45
2022/05/14 06:09:58;;;;;;;4.13;3.17;;;;;;;;;;5052589;28;20056;-44
2022/05/14 06:12:24;;;;;;;4.78;2.67;;;;;;;;;;5053314;28;20025;-44
2022/05/14 06:14:50;;;;;;;5.40;3.15;;;;;;;;;;5052787;28;20047;-44
2022/05/14 06:17:17;;;;;;;6.72;3.25;;;;;;;;;;5052698;28;20029;-44
2022/05/14 06:19:43;;;;;;;3.53;2.90;;;;;;;;;;5052449;28;20511;-44
2022/05/14 06:22:09;;;;;;;3.97;3.00;;;;;;;;;;5052891;28;20455;-44
2022/05/14 06:24:36;;;;;;;3.97;2.90;;;;;;;;;;5052962;28;20029;-44
2022/05/14 06:27:03;;;;;;;8.85;3.72;;;;;;;;;;5052614;28;20461;-44
2022/05/14 06:29:31;;;;;;;6.07;3.40;;;;;;;;;;5052860;28;20488;-44
2022/05/14 06:31:57;;;;;;;11.52;8.18;;;;;;;;;;5052604;28;20062;-44
2022/05/14 06:34:23;;;;;;;40.90;27.33;;;;;;;;;;5052961;28;20021;-44
2022/05/14 06:36:50;;;;;;;18.85;14.32;;;;;;;;;;5052765;28;20033;-44
2022/05/14 06:39:16;;;;;;;27.02;18.10;;;;;;;;;;5052668;28;20028;-45
2022/05/14 06:41:42;;;;;;;20.35;13.65;;;;;;;;;;5052809;28;20025;-44
2022/05/14 06:44:10;;;;;;;11.43;7.60;;;;;;;;;;5056085;28;20025;-45
2022/05/14 06:46:37;;;;;;;15.38;11.52;;;;;;;;;;5056093;28;20416;-43
2022/05/14 06:49:04;;;;;;;16.35;10.27;;;;;;;;;;5056385;28;20020;-44
2022/05/14 06:51:31;;;;;;;46.78;29.55;;;;;;;;;;5056433;28;20553;-44
2022/05/14 06:54:01;;;;;;;13.85;9.77;;;;;;;;;;5055872;28;20021;-43
2022/05/14 06:56:28;;;;;;;19.63;11.52;;;;;;;;;;5055798;28;20037;-44
2022/05/14 06:58:55;;;;;;;21.42;11.07;;;;;;;;;;5055923;28;20539;-45
2022/05/14 07:01:21;;;;;;;11.93;7.97;;;;;;;;;;5032082;28;20619;-44
2022/05/14 07:06:40;;;;;;;7.53;4.90;;;;;;;;;;5025604;28;20048;-42
2022/05/14 07:09:17;;;;;;;9.68;6.40;;;;;;;;;;5025258;28;20029;-43
2022/05/14 07:11:46;;;;;;;5.13;4.13;;;;;;;;;;5025103;28;20069;-42
2022/05/14 07:14:13;;;;;;;5.75;3.63;;;;;;;;;;5024916;28;20035;-43
2022/05/14 07:16:39;;;;;;;8.65;5.40;;;;;;;;;;5024735;28;20466;-43
2022/05/14 07:19:06;;;;;;;7.32;4.13;;;;;;;;;;5025437;28;20063;-43
2022/05/14 07:21:34;;;;;;;6.53;4.28;;;;;;;;;;5025212;28;20082;-43
2022/05/14 07:24:02;;;;;;;5.18;4.22;;;;;;;;;;5024981;28;20740;-43
2022/05/14 07:26:28;;;;;;;6.32;4.07;;;;;;;;;;5024706;28;20032;-43
2022/05/14 07:28:54;;;;;;;6.80;3.80;;;;;;;;;;5025147;28;20020;-43
2022/05/14 07:31:20;;;;;;;8.50;3.67;;;;;;;;;;5025013;28;20021;-43
2022/05/14 07:33:46;;;;;;;4.93;3.17;;;;;;;;;;5024568;28;20748;-42
2022/05/14 07:36:17;;;;;;;6.85;4.10;;;;;;;;;;5024795;28;20266;-42
2022/05/14 07:38:44;;;;;;;8.05;5.25;;;;;;;;;;5024840;28;20578;-43
2022/05/14 07:41:11;;;;;;;6.30;3.50;;;;;;;;;;5025208;28;20036;-43
2022/05/14 07:43:38;;;;;;;8.10;3.60;;;;;;;;;;5024884;28;20070;-43
2022/05/14 07:46:07;;;;;;;5.70;3.75;;;;;;;;;;5024387;28;20029;-43
2022/05/14 07:48:35;;;;;;;4.28;3.85;;;;;;;;;;5024655;28;20029;-43
2022/05/14 07:51:02;;;;;;;8.07;4.38;;;;;;;;;;5024344;28;20148;-43
2022/05/14 07:53:30;;;;;;;11.13;4.75;;;;;;;;;;5024226;28;20052;-42
2022/05/14 07:56:00;;;;;;;6.03;4.38;;;;;;;;;;5024229;28;20041;-43
2022/05/14 07:58:27;;;;;;;8.90;4.03;;;;;;;;;;5024123;28;20029;-42
2022/05/14 08:00:54;;;;;;;6.95;3.72;;;;;;;;;;5023687;28;20033;-43
2022/05/14 08:03:24;;;;;;;6.75;3.92;;;;;;;;;;5024236;28;20029;-43
2022/05/14 08:05:56;;;;;;;28.77;14.20;;;;;;;;;;5024364;28;20114;-42
2022/05/14 08:08:23;;;;;;;56.85;32.22;;;;;;;;;;5024506;28;20040;-44
2022/05/14 08:10:49;;;;;;;25.58;15.60;;;;;;;;;;5024414;28;20048;-42
2022/05/14 08:13:17;;;;;;;32.45;24.42;;;;;;;;;;5024046;28;20399;-41
2022/05/14 08:15:44;;;;;;;11.90;7.25;;;;;;;;;;5024367;28;20045;-42
2022/05/14 08:18:10;;;;;;;12.60;5.30;;;;;;;;;;5024178;28;20045;-41
2022/05/14 08:20:36;;;;;;;6.80;4.00;;;;;;;;;;5024001;28;20025;-41
2022/05/14 08:25:50;;;;;;;5.55;3.20;;;;;;;;;;5024395;28;20082;-42
2022/05/14 08:28:16;;;;;;;5.45;3.40;;;;;;;;;;5035729;28;20040;-42
2022/05/14 08:30:42;;;;;;;6.80;3.70;;;;;;;;;;5023566;28;20118;-42
2022/05/14 08:33:08;;;;;;;5.28;3.13;;;;;;;;;;5022629;28;20064;-42
2022/05/14 08:35:35;;;;;;;4.38;3.20;;;;;;;;;;5023946;28;20040;-42
2022/05/14 08:38:01;;;;;;;6.25;3.63;;;;;;;;;;5023538;28;20022;-42
2022/05/14 08:40:54;;;;;;;6.60;3.20;;;;;;;;;;5023644;28;20029;-43
2022/05/14 08:43:24;;;;;;;11.80;3.65;;;;;;;;;;5019219;28;20041;-43
2022/05/14 08:45:50;;;;;;;4.45;3.10;;;;;;;;;;5023859;28;20029;-42
2022/05/14 08:48:16;;;;;;;6.18;2.75;;;;;;;;;;5023373;28;20118;-43
2022/05/14 08:50:43;;;;;;;6.13;2.95;;;;;;;;;;5023575;28;20385;-43
2022/05/14 08:53:12;;;;;;;3.47;2.47;;;;;;;;;;5022891;28;20037;-43
2022/05/14 08:55:46;;;;;;;4.95;2.92;;;;;;;;;;5023480;28;20066;-43
2022/05/14 08:58:18;;;;;;;4.50;2.50;;;;;;;;;;5022534;28;20033;-42
2022/05/14 09:00:44;;;;;;;12.07;3.17;;;;;;;;;;5022896;28;20461;-43
2022/05/14 09:03:10;;;;;;;4.95;2.20;;;;;;;;;;5022971;28;20033;-44
2022/05/14 09:05:37;;;;;;;4.72;2.30;;;;;;;;;;5022307;28;20025;-43
2022/05/14 09:08:03;;;;;;;4.07;2.80;;;;;;;;;;5022213;28;20033;-43
2022/05/14 09:10:40;;;;;;;3.88;2.45;;;;;;;;;;5008124;28;20509;-43
2022/05/14 09:13:14;;;;;;;2.95;1.80;;;;;;;;;;5023079;28;20322;-43
2022/05/14 09:15:51;;;;;;;4.32;2.30;;;;;;;;;;5022196;28;20033;-43
2022/05/14 09:18:22;;;;;;;5.80;2.55;;;;;;;;;;5022676;28;20021;-44
2022/05/14 09:20:54;;;;;;;5.80;2.30;;;;;;;;;;5023075;28;20036;-44
2022/05/14 09:23:27;;;;;;;6.75;2.50;;;;;;;;;;5022690;28;20045;-43
2022/05/14 09:25:53;;;;;;;3.00;1.90;;;;;;;;;;5022747;28;20512;-44
2022/05/14 09:28:57;;;;;;;6.32;3.25;;;;;;;;;;5022816;28;20025;-44
2022/05/14 09:31:29;;;;;;;6.70;2.90;;;;;;;;;;4939631;28;21018;-42
2022/05/14 09:34:04;;;;;;;21.73;13.68;;;;;;;;;;4939249;28;20426;-43
2022/05/14 09:36:31;;;;;;;16.60;10.68;;;;;;;;;;4939596;28;20047;-42
2022/05/14 09:39:16;;;;;;;18.58;10.30;;;;;;;;;;4939818;28;20449;-42
2022/05/14 09:41:44;;;;;;;51.47;30.92;;;;;;;;;;4939587;28;20034;-42
2022/05/14 09:44:15;;;;;;;21.50;14.82;;;;;;;;;;4939746;28;20517;-42
2022/05/14 09:46:41;;;;;;;25.45;17.55;;;;;;;;;;4939671;28;20033;-43
2022/05/14 09:49:08;;;;;;;14.40;9.90;;;;;;;;;;4939404;28;20227;-43
2022/05/14 09:51:47;;;;;;;12.80;4.93;;;;;;;;;;4939428;28;20031;-42
2022/05/14 09:54:13;;;;;;;35.23;24.67;;;;;;;;;;4939321;28;20039;-43
2022/05/14 09:56:58;;;;;;;11.95;9.52;;;;;;;;;;4939401;28;20417;-43
2022/05/14 09:59:31;;;;;;;10.25;5.28;;;;;;;;;;4938930;28;20121;-43
2022/05/14 10:02:27;;;;;;;5.07;2.15;;;;;;;;;;4972708;28;20037;-43
2022/05/14 10:05:02;;;;;;;5.63;3.72;;;;;;;;;;5012991;28;20029;-43
2022/05/14 10:07:34;;;;;;;13.90;9.75;;;;;;;;;;5022550;28;20358;-43
2022/05/14 10:10:13;;;;;;;23.63;14.55;;;;;;;;;;5022334;28;21054;-43
2022/05/14 10:12:43;;;;;;;15.68;9.93;;;;;;;;;;5022440;28;20470;-43
2022/05/14 10:15:09;;;;;;;21.38;16.60;;;;;;;;;;5021785;28;20104;-41
2022/05/14 10:17:41;;;;;;;30.88;6.78;;;;;;;;;;5025045;28;20446;-42
2022/05/14 10:20:18;;;;;;;16.98;8.60;;;;;;;;;;5026346;28;20110;-42
2022/05/14 10:28:41;;;;;;;20.80;15.38;;;;;;;;;;5025386;28;20471;-42
2022/05/14 10:31:21;;;;;;;7.97;6.00;;;;;;;;;;5025719;28;20029;-42
2022/05/14 10:33:49;;;;;;;15.50;4.57;;;;;;;;;;5025668;28;20143;-42
2022/05/14 10:36:15;;;;;;;5.03;3.40;;;;;;;;;;5025982;28;20029;-42
2022/05/14 10:38:56;;;;;;;4.35;2.10;;;;;;;;;;5025810;28;20032;-41
2022/05/14 10:41:22;;;;;;;;;;;;;;;;;;5026230;28;20434;-41
2022/05/14 10:43:52;;;;;;;11.80;6.40;;;;;;;;;;5025779;28;20520;-43
2022/05/14 10:46:19;;;;;;;9.35;2.75;;;;;;;;;;5025134;28;20040;-41
2022/05/14 10:49:00;;;;;;;4.90;2.17;;;;;;;;;;5025670;28;20035;-44
2022/05/14 10:51:28;;;;;;;6.22;2.03;;;;;;;;;;5026215;28;20033;-41
2022/05/14 10:53:55;;;;;;;6.10;1.98;;;;;;;;;;5025717;28;20053;-42
2022/05/14 10:56:26;;;;;;;3.60;1.58;;;;;;;;;;5025380;28;20069;-41
2022/05/14 10:58:52;;;;;;;7.00;2.63;;;;;;;;;;5025357;28;20052;-42
2022/05/14 11:01:30;;;;;;;3.90;2.70;;;;;;;;;;5024999;28;20181;-42
2022/05/14 11:03:58;;;;;;;2.63;1.60;;;;;;;;;;5025195;28;20174;-42
2022/05/14 11:06:31;;;;;;;4.43;1.70;;;;;;;;;;5025303;28;20508;-42
2022/05/14 11:08:58;;;;;;;4.55;1.80;;;;;;;;;;5025177;28;20657;-42
2022/05/14 11:11:25;;;;;;;7.50;1.70;;;;;;;;;;5024826;28;20163;-42
2022/05/14 11:14:01;;;;;;;6.93;3.70;;;;;;;;;;5024625;28;20047;-42
2022/05/14 11:16:36;;;;;;;3.92;2.20;;;;;;;;;;5025217;28;20048;-42
2022/05/14 11:19:04;;;;;;;2.63;1.77;;;;;;;;;;5024614;28;20029;-42
2022/05/14 11:21:48;;;;;;;8.15;1.70;;;;;;;;;;5025072;28;20725;-43
2022/05/14 11:24:15;;;;;;;3.03;1.80;;;;;;;;;;5024880;28;20029;-42
2022/05/14 11:26:47;;;;;;;3.20;1.45;;;;;;;;;;5024505;28;20079;-42
2022/05/14 11:29:16;;;;;;;7.53;1.42;;;;;;;;;;5023968;28;20128;-42
2022/05/14 11:31:50;;;;;;;4.47;1.60;;;;;;;;;;5024490;28;21203;-43
2022/05/14 11:34:19;;;;;;;4.68;1.42;;;;;;;;;;5024632;28;20074;-42
2022/05/14 11:36:48;;;;;;;3.95;1.45;;;;;;;;;;5024645;28;20069;-43
2022/05/14 11:39:23;;;;;;;2.63;1.67;;;;;;;;;;5024312;28;20026;-43
2022/05/14 11:41:50;;;;;;;2.10;1.52;;;;;;;;;;5024464;28;20565;-43
2022/05/14 11:44:27;;;;;;;10.02;4.30;;;;;;;;;;5024172;28;20030;-43
2022/05/14 11:46:53;;;;;;;35.85;27.40;;;;;;;;;;5024417;28;20230;-42
2022/05/14 11:49:22;;;;;;;19.67;15.38;;;;;;;;;;5024833;28;20021;-42
2022/05/14 11:52:09;;;;;;;24.60;16.25;;;;;;;;;;5024938;28;20041;-42
2022/05/14 11:54:36;;;;;;;10.27;7.00;;;;;;;;;;5024137;28;20160;-43
2022/05/14 11:57:14;;;;;;;10.15;3.75;;;;;;;;;;5024000;28;20186;-43
2022/05/14 11:59:52;;;;;;;7.15;2.55;;;;;;;;;;5024496;28;20028;-43
2022/05/14 12:02:21;;;;;;;7.78;2.67;;;;;;;;;;5024235;28;20717;-43
2022/05/14 12:04:50;;;;;;;4.47;2.25;;;;;;;;;;5023252;28;20025;-43
2022/05/14 12:07:19;;;;;;;2.95;1.80;;;;;;;;;;5024019;28;20077;-43
2022/05/14 12:10:09;;;;;;;4.65;1.48;;;;;;;;;;5023921;28;20110;-44
2022/05/14 12:12:50;;;;;;;7.78;2.10;;;;;;;;;;5024111;28;20030;-43
2022/05/14 12:15:21;;;;;;;7.97;2.00;;;;;;;;;;5023530;28;20033;-44
2022/05/14 12:17:52;;;;;;;6.55;3.15;;;;;;;;;;5023693;28;20147;-44
2022/05/14 12:20:22;;;;;;;8.23;3.08;;;;;;;;;;5023668;28;21091;-44
2022/05/14 12:22:52;;;;;;;6.03;1.77;;;;;;;;;;5024425;28;20048;-43
2022/05/14 12:25:18;;;;;;;3.03;1.52;;;;;;;;;;5023362;28;20036;-43
2022/05/14 12:27:46;;;;;;;4.45;3.50;;;;;;;;;;5024514;28;20477;-43
2022/05/14 12:33:11;;;;;;;25.98;17.88;;;;;;;;;;5024125;28;20033;-44
2022/05/14 12:33:12;;;;;;;14.98;11.77;;;;;;;;;;5023447;28;20435;-43
2022/05/14 12:35:38;;;;;;;6.72;3.70;;;;;;;;;;5023583;28;20033;-44
2022/05/14 12:38:08;;;;;;;5.35;3.30;;;;;;;;;;5023920;28;20492;-44
2022/05/14 12:40:36;;;;;;;5.88;2.45;;;;;;;;;;5022490;28;20033;-44
2022/05/14 12:43:03;;;;;;;8.88;2.67;;;;;;;;;;5023602;28;20029;-44
2022/05/14 12:45:35;;;;;;;5.50;1.90;;;;;;;;;;5023161;28;20028;-43
2022/05/14 12:48:02;;;;;;;9.05;2.05;;;;;;;;;;5023287;28;20526;-44
2022/05/14 12:50:32;;;;;;;6.75;2.33;;;;;;;;;;5023267;28;20063;-44
2022/05/14 12:53:01;;;;;;;7.38;1.70;;;;;;;;;;5023367;28;21132;-43
2022/05/14 12:55:28;;;;;;;5.00;1.23;;;;;;;;;;5023158;28;20037;-44
2022/05/14 12:57:54;;;;;;;2.45;1.50;;;;;;;;;;5022955;28;20040;-43
2022/05/14 13:00:21;;;;;;;15.15;9.63;;;;;;;;;;5023367;28;20082;-43
2022/05/14 13:03:07;;;;;;;9.98;4.28;;;;;;;;;;5023410;28;20034;-43
2022/05/14 13:05:33;;;;;;;17.92;11.52;;;;;;;;;;5023648;28;20074;-44
2022/05/14 13:08:04;;;;;;;23.48;16.98;;;;;;;;;;5023163;28;20021;-44
2022/05/14 13:10:31;;;;;;;7.45;2.30;;;;;;;;;;5023417;28;20194;-46
2022/05/14 13:12:59;;;;;;;6.30;3.08;;;;;;;;;;5023550;28;20754;-46
2022/05/14 13:15:36;;;;;;;53.08;4.05;;;;;;;;;;5024278;28;20035;-46
2022/05/14 13:18:20;;;;;;;32.33;14.35;;;;;;;;;;5023563;28;20021;-45
2022/05/14 13:20:46;;;;;;;9.40;4.35;;;;;;;;;;5023480;28;20025;-45
2022/05/14 13:23:14;;;;;;;8.32;4.25;;;;;;;;;;5023390;28;20034;-45
2022/05/14 13:25:41;;;;;;;7.05;3.40;;;;;;;;;;5023267;28;20040;-46
2022/05/14 13:28:08;;;;;;;70.43;51.83;;;;;;;;;;5023470;28;20029;-45
2022/05/14 13:30:35;;;;;;;136.32;92.15;;;;;;;;;;5023490;28;20296;-44
2022/05/14 13:33:05;;;;;;;67.25;45.83;;;;;;;;;;5023595;28;20100;-45
2022/05/14 13:38:16;;;;;;;4.50;2.97;;;;;;;;;;5023391;28;20099;-45
2022/05/14 13:40:45;;;;;;;6.60;2.33;;;;;;;;;;5023655;28;20096;-45
2022/05/14 13:43:14;;;;;;;5.20;2.78;;;;;;;;;;5023103;28;20607;-45
2022/05/14 13:45:43;;;;;;;12.00;6.60;;;;;;;;;;5023783;28;20025;-45
2022/05/14 13:48:13;;;;;;;6.03;2.47;;;;;;;;;;5022979;28;20102;-43
2022/05/14 13:50:41;;;;;;;6.22;3.80;;;;;;;;;;5023095;28;20037;-43
2022/05/14 13:53:08;;;;;;;2.15;1.63;;;;;;;;;;5027888;28;20065;-43
2022/05/14 13:55:39;;;;;;;4.80;1.48;;;;;;;;;;5027292;28;20049;-44
2022/05/14 13:58:23;;;;;;;4.10;1.88;;;;;;;;;;5027631;28;20060;-44
2022/05/14 14:01:12;;;;;;;7.40;1.27;;;;;;;;;;5026960;28;20037;-45
2022/05/14 14:03:44;;;;;;;2.60;1.00;;;;;;;;;;4963894;28;20049;-43
2022/05/14 14:06:11;;;;;;;2.10;0.95;;;;;;;;;;4963564;28;20045;-43
2022/05/14 14:08:37;;;;;;;7.50;3.58;;;;;;;;;;4963695;28;20041;-43
2022/05/14 14:11:03;;;;;;;7.28;1.83;;;;;;;;;;4963743;28;20078;-44
2022/05/14 14:13:29;;;;;;;8.38;1.60;;;;;;;;;;4963851;28;20026;-44
2022/05/14 14:15:55;;;;;;;13.55;3.65;;;;;;;;;;4963779;28;20970;-44
2022/05/14 14:18:22;;;;;;;2.13;1.42;;;;;;;;;;4964226;28;20058;-44
2022/05/14 14:20:51;;;;;;;3.63;1.20;;;;;;;;;;4963385;28;20165;-43
2022/05/14 14:23:19;;;;;;;11.23;1.40;;;;;;;;;;4964057;28;20038;-44
2022/05/14 14:25:46;;;;;;;2.67;1.55;;;;;;;;;;4963882;28;20062;-45
2022/05/14 14:28:12;;;;;;;8.73;4.22;;;;;;;;;;4965236;28;20045;-44
2022/05/14 14:30:39;;;;;;;18.38;11.23;;;;;;;;;;4963706;28;20038;-45
2022/05/14 14:33:05;;;;;;;10.63;4.40;;;;;;;;;;4963347;28;20097;-44
2022/05/14 14:35:31;;;;;;;7.45;2.75;;;;;;;;;;4963021;28;21112;-44
2022/05/14 14:37:58;;;;;;;6.38;3.17;;;;;;;;;;4965317;28;20049;-44
2022/05/14 14:40:24;;;;;;;59.80;43.90;;;;;;;;;;4987069;28;20060;-43
2022/05/14 14:42:51;;;;;;;31.67;21.52;;;;;;;;;;5026111;28;20022;-43
2022/05/14 14:45:17;;;;;;;12.95;8.75;;;;;;;;;;5025870;28;20033;-44
2022/05/14 14:47:44;;;;;;;6.80;4.95;;;;;;;;;;5026239;28;20025;-43
2022/05/14 14:50:11;;;;;;;7.13;4.03;;;;;;;;;;5026503;28;20118;-45
2022/05/14 14:52:37;;;;;;;15.18;6.38;;;;;;;;;;5026457;28;20884;-43
2022/05/14 14:55:05;;;;;;;7.38;4.05;;;;;;;;;;5025991;28;20029;-45
2022/05/14 14:57:31;;;;;;;34.35;22.52;;;;;;;;;;5026370;28;20096;-45
2022/05/14 14:59:57;;;;;;;12.32;6.68;;;;;;;;;;5026071;28;20550;-44
2022/05/14 15:02:25;;;;;;;36.40;27.88;;;;;;;;;;5025354;28;20067;-44
2022/05/14 15:04:53;;;;;;;28.42;20.35;;;;;;;;;;5025447;28;20021;-44
2022/05/14 15:07:21;;;;;;;27.08;13.30;;;;;;;;;;5025510;28;21009;-45
2022/05/14 15:09:48;;;;;;;9.60;4.50;;;;;;;;;;5025617;28;20316;-43